Time;durP1;ratioP1;P1;durP2;ratioP2;P2;SDS_P1;SDS_P2;PMS_P1;PMS_P2;Temp;Humidity;BMP_temperature;BMP_pressure;BME280_temperature;BME280_humidity;BME280_pressure;Samples;Min_cycle;Max_cycle;Signal;HPM_P1;HPM_P2
2021/04/24 06:02:23;;;;;;;11.97;6.75;;;;;;;3.08;71.85;100803.06;1808071;77;25554;-46
2021/04/24 06:04:50;;;;;;;15.13;6.50;;;;;;;3.25;72.17;100812.38;1813163;79;25558;-47
2021/04/24 06:07:17;;;;;;;25.05;7.50;;;;;;;3.40;71.29;100809.91;1780031;79;26743;-49
2021/04/24 06:09:44;;;;;;;14.78;6.25;;;;;;;3.57;71.59;100811.72;1799229;77;25566;-46
2021/04/24 06:12:12;;;;;;;15.28;6.58;;;;;;;3.71;70.30;100816.45;1807616;79;25518;-47
2021/04/24 06:14:39;;;;;;;12.78;6.15;;;;;;;3.86;69.82;100819.01;1826680;77;26263;-49
2021/04/24 06:17:08;;;;;;;15.25;7.22;;;;;;;4.01;69.92;100814.36;1826329;77;26183;-48
2021/04/24 06:19:36;;;;;;;12.58;6.05;;;;;;;4.26;70.23;100813.27;1809068;77;25746;-47
2021/04/24 06:22:03;;;;;;;11.85;6.25;;;;;;;4.55;69.09;100814.86;1791618;79;25571;-46
2021/04/24 06:24:30;;;;;;;13.93;6.47;;;;;;;4.79;69.39;100816.64;1787162;79;25589;-47
2021/04/24 06:26:56;;;;;;;11.88;5.90;;;;;;;5.01;67.63;100812.50;1762705;80;26077;-47
2021/04/24 06:29:23;;;;;;;14.50;6.12;;;;;;;5.32;68.84;100820.72;1791315;79;25635;-47
2021/04/24 06:31:50;;;;;;;14.35;6.05;;;;;;;5.65;67.10;100820.05;1774053;79;26306;-59
2021/04/24 06:34:16;;;;;;;17.25;6.03;;;;;;;5.88;66.36;100825.50;1790175;79;25600;-47
2021/04/24 06:36:49;;;;;;;12.15;6.12;;;;;;;6.07;65.20;100819.14;1796293;77;25574;-60
2021/04/24 06:39:16;;;;;;;15.75;5.53;;;;;;;6.30;65.21;100825.35;1778356;78;25569;-58
2021/04/24 06:41:46;;;;;;;;;;;;;;;6.56;64.67;100814.62;1788567;78;25990;-58
2021/04/24 06:44:16;;;;;;;11.73;6.03;;;;;;;6.80;64.16;100816.76;1794139;78;25697;-58
2021/04/24 06:46:45;;;;;;;12.60;5.55;;;;;;;7.05;63.54;100814.03;1772311;78;25762;-59
2021/04/24 06:49:11;;;;;;;12.43;5.87;;;;;;;7.23;60.26;100811.27;1724203;82;25614;-48
2021/04/24 06:51:39;;;;;;;10.65;5.62;;;;;;;7.44;62.35;100815.24;1751963;78;25664;-46
2021/04/24 06:54:08;;;;;;;12.85;6.28;;;;;;;7.76;62.63;100819.42;1782931;78;25805;-47
2021/04/24 06:56:37;;;;;;;11.28;5.45;;;;;;;8.11;60.93;100813.59;1792711;78;26624;-59
2021/04/24 06:59:06;;;;;;;10.75;5.40;;;;;;;8.29;59.18;100819.67;1792707;78;25520;-59
2021/04/24 07:01:33;;;;;;;13.88;4.53;;;;;;;8.46;59.16;100819.83;1789442;78;25679;-47
2021/04/24 07:03:59;;;;;;;14.00;5.35;;;;;;;8.72;60.08;100813.14;1768539;78;25706;-59
2021/04/24 07:06:28;;;;;;;8.93;5.72;;;;;;;9.13;60.41;100816.78;1792630;78;25737;-59
2021/04/24 07:08:57;;;;;;;11.68;5.28;;;;;;;9.56;58.45;100821.44;1798229;78;25740;-46
2021/04/24 07:11:24;;;;;;;10.53;4.70;;;;;;;9.71;57.02;100817.19;1786587;78;25751;-50
2021/04/24 07:13:51;;;;;;;12.15;4.97;;;;;;;9.96;55.52;100819.83;1790483;78;26331;-49
2021/04/24 07:16:20;;;;;;;8.50;4.85;;;;;;;10.20;56.60;100815.17;1796609;78;25520;-48
2021/04/24 07:18:47;;;;;;;14.80;5.40;;;;;;;10.49;54.47;100814.74;1794855;78;26087;-60
2021/04/24 07:21:14;;;;;;;14.55;7.53;;;;;;;10.65;54.22;100822.31;1787259;76;25750;-60
2021/04/24 07:27:18;;;;;;;8.60;4.50;;;;;;;11.24;54.30;100809.64;1700899;83;25703;-47
2021/04/24 07:29:44;;;;;;;9.15;4.45;;;;;;;11.59;53.19;100806.77;1687011;84;25690;-50
2021/04/24 07:32:12;;;;;;;7.20;3.87;;;;;;;11.91;53.24;100804.22;1673497;83;25675;-47
2021/04/24 07:34:39;;;;;;;11.45;3.98;;;;;;;12.23;51.80;100809.20;1676174;85;25998;-47
2021/04/24 07:37:06;;;;;;;6.45;3.95;;;;;;;12.49;51.19;100812.09;1646103;87;26310;-46
2021/04/24 07:39:33;;;;;;;10.00;3.90;;;;;;;12.82;50.50;100807.73;1674856;85;25680;-50
2021/04/24 07:42:01;;;;;;;6.65;4.50;;;;;;;13.04;49.03;100814.49;1647084;87;25698;-46
2021/04/24 07:44:28;;;;;;;10.28;4.05;;;;;;;13.20;48.73;100808.08;1675986;85;25621;-48
2021/04/24 07:46:56;;;;;;;6.85;3.47;;;;;;;13.36;48.19;100811.75;1646926;87;25929;-47
2021/04/24 07:49:23;;;;;;;9.55;4.35;;;;;;;13.52;47.85;100810.75;1675646;85;25716;-47
2021/04/24 07:51:50;;;;;;;8.25;4.25;;;;;;;13.72;46.75;100809.36;1655744;83;25663;-48
2021/04/24 07:54:17;;;;;;;8.93;3.80;;;;;;;13.84;45.88;100813.61;1689056;84;25647;-47
2021/04/24 07:56:43;;;;;;;8.43;3.47;;;;;;;13.94;46.39;100811.94;1694439;84;25614;-47
2021/04/24 07:59:13;;;;;;;8.20;3.47;;;;;;;14.12;44.74;100816.84;1685948;83;26442;-47
2021/04/24 08:01:40;;;;;;;5.30;2.98;;;;;;;14.30;44.89;100814.11;1696332;83;25697;-48
2021/04/24 08:04:08;;;;;;;8.08;3.83;;;;;;;14.48;43.41;100814.33;1723080;83;25591;-47
2021/04/24 08:06:36;;;;;;;9.25;4.35;;;;;;;14.31;40.34;100814.36;1761050;81;25571;-49
2021/04/24 08:09:05;;;;;;;7.08;3.52;;;;;;;14.22;42.18;100817.63;1761581;81;25698;-46
2021/04/24 08:11:34;;;;;;;6.97;4.08;;;;;;;14.42;43.15;100817.54;1760877;81;25751;-48
2021/04/24 08:14:03;;;;;;;9.25;3.33;;;;;;;14.79;43.74;100818.78;1780590;79;35177;-50
2021/04/24 08:16:30;;;;;;;8.78;3.72;;;;;;;15.19;42.97;100806.78;1789055;79;25560;-48
2021/04/24 08:19:00;;;;;;;7.47;3.37;;;;;;;15.19;39.23;100818.50;1768611;80;25597;-48
2021/04/24 08:21:28;;;;;;;7.22;3.55;;;;;;;15.10;39.62;100815.81;1760831;81;25756;-47
2021/04/24 08:23:59;;;;;;;9.48;3.85;;;;;;;15.14;40.14;100813.23;1761439;81;25797;-46
2021/04/24 08:26:23;;;;;;;4.70;3.25;;;;;;;15.45;40.99;100808.82;1760863;81;25618;-49
2021/04/24 08:28:50;;;;;;;7.80;3.05;;;;;;;15.71;39.68;100813.31;1759773;81;25660;-49
2021/04/24 08:31:17;;;;;;;10.63;3.80;;;;;;;16.00;40.50;100808.40;1760947;81;25740;-47
2021/04/24 08:33:44;;;;;;;8.00;4.90;;;;;;;16.35;40.18;100806.75;1767150;78;25683;-46
2021/04/24 08:36:10;;;;;;;10.45;4.95;;;;;;;16.80;40.02;100807.90;1794247;78;25813;-47
2021/04/24 08:38:37;;;;;;;9.05;3.65;;;;;;;17.04;39.06;100803.06;1791505;79;25661;-47
2021/04/24 08:41:05;;;;;;;7.00;3.37;;;;;;;16.77;38.50;100808.57;1791515;79;26000;-46
2021/04/24 08:43:38;;;;;;;6.67;3.20;;;;;;;16.57;38.43;100805.58;1791043;80;25986;-50
2021/04/24 08:46:06;;;;;;;8.35;3.17;;;;;;;16.55;38.88;100805.12;1790483;78;25439;-47
2021/04/24 08:48:34;;;;;;;5.90;3.10;;;;;;;16.60;38.07;100804.91;1789103;80;25937;-47
2021/04/24 08:51:02;;;;;;;7.70;3.12;;;;;;;16.80;38.61;100795.06;1811526;77;25608;-47
2021/04/24 08:53:29;;;;;;;6.47;2.60;;;;;;;17.14;38.45;100798.52;1776255;80;26252;-45
2021/04/24 08:55:56;;;;;;;4.75;3.00;;;;;;;16.91;36.89;100790.55;1779914;78;25600;-46
2021/04/24 08:58:22;;;;;;;7.22;3.12;;;;;;;16.89;36.09;100794.17;1783687;80;25643;-48
2021/04/24 09:00:52;;;;;;;8.53;3.92;;;;;;;16.50;35.70;100791.68;1781622;79;25791;-49
2021/04/24 09:03:21;;;;;;;9.00;3.80;;;;;;;16.16;36.00;100791.45;1845603;77;25949;-49
2021/04/24 09:05:50;;;;;;;10.38;3.42;;;;;;;15.84;36.34;100793.20;1845884;77;25599;-50
2021/04/24 09:08:26;;;;;;;;;;;;;;;15.68;36.86;100794.88;1838307;77;25521;-47
2021/04/24 09:11:01;;;;;;;6.20;3.10;;;;;;;15.80;35.51;100786.02;1779931;80;25786;-49
2021/04/24 09:13:30;;;;;;;6.30;2.70;;;;;;;15.33;35.46;100791.02;1812290;78;25885;-48
2021/04/24 09:15:59;;;;;;;6.93;3.10;;;;;;;14.86;34.76;100791.84;1786875;79;25661;-48
2021/04/24 09:18:29;;;;;;;3.75;2.75;;;;;;;14.44;35.80;100791.62;1787011;79;30377;-47
2021/04/24 09:21:03;;;;;;;5.03;2.67;;;;;;;14.20;35.79;100786.12;1812596;77;25601;-47
2021/04/24 09:23:34;;;;;;;8.50;2.62;;;;;;;13.81;35.96;100783.00;1809984;78;25580;-50
2021/04/24 09:26:06;;;;;;;3.75;2.17;;;;;;;13.92;36.47;100790.28;1812948;78;26571;-49
2021/04/24 09:28:45;;;;;;;4.22;2.42;;;;;;;14.21;36.97;100785.55;1780259;79;25602;-47
2021/04/24 09:31:26;;;;;;;5.40;2.37;;;;;;;14.18;36.29;100781.56;1814011;78;25510;-49
2021/04/24 09:33:59;;;;;;;4.50;2.60;;;;;;;14.85;37.56;100786.17;1765592;80;25573;-46
2021/04/24 09:36:37;;;;;;;3.90;2.33;;;;;;;15.47;36.29;100779.87;1742241;79;25600;-48
2021/04/24 09:39:08;;;;;;;4.70;2.37;;;;;;;15.43;35.14;100777.02;1823589;78;26602;-47
2021/04/24 09:41:41;;;;;;;5.97;2.65;;;;;;;14.94;35.29;100782.84;1837391;77;25592;-46
2021/04/24 09:44:26;;;;;;;4.10;2.37;;;;;;;14.71;35.48;100782.30;1797930;79;25997;-46
2021/04/24 09:46:57;;;;;;;5.92;2.90;;;;;;;14.64;35.14;100779.83;1784310;79;25697;-59
2021/04/24 09:49:33;;;;;;;3.40;1.95;;;;;;;14.46;35.07;100777.69;1799550;79;25626;-63
2021/04/24 09:52:06;;;;;;;4.97;2.20;;;;;;;14.17;34.88;100776.44;1810705;79;25773;-70
2021/04/24 09:54:45;;;;;;;5.55;2.17;;;;;;;14.20;34.93;100767.08;1747503;79;25724;-52
2021/04/24 09:57:21;;;;;;;4.90;2.40;;;;;;;13.99;34.84;100772.34;1768895;80;25631;-54
2021/04/24 10:00:00;;;;;;;3.00;2.05;;;;;;;14.05;35.79;100769.50;1748517;79;25739;-53
2021/04/24 10:02:39;;;;;;;6.40;2.15;;;;;;;14.50;35.83;100763.66;1745526;81;25599;-52
2021/04/24 10:05:21;;;;;;;4.40;2.47;;;;;;;14.71;35.52;100760.52;1758472;79;25741;-50
2021/04/24 10:07:55;;;;;;;;;;;;;;;14.61;35.05;100755.97;1776096;80;25573;-52
2021/04/24 10:10:36;;;;;;;5.60;2.27;;;;;;;14.66;33.47;100760.70;1760951;81;25591;-51
2021/04/24 10:13:08;;;;;;;4.12;1.70;;;;;;;14.41;34.53;100756.88;1760452;81;25574;-53
2021/04/24 10:15:45;;;;;;;3.33;2.12;;;;;;;14.13;34.20;100755.89;1760724;81;25675;-53
2021/04/24 10:18:14;;;;;;;3.55;1.95;;;;;;;13.76;34.37;100751.89;1761766;78;25703;-56
2021/04/24 10:20:44;;;;;;;3.40;2.10;;;;;;;13.43;33.54;100747.70;1792466;79;25577;-55
2021/04/24 10:23:14;;;;;;;4.67;2.50;;;;;;;12.99;33.93;100750.81;1792602;80;25604;-54
2021/04/24 10:25:42;;;;;;;3.65;2.42;;;;;;;12.56;34.46;100753.32;1792326;80;25537;-52
2021/04/24 10:28:09;;;;;;;5.10;2.02;;;;;;;12.23;35.37;100751.69;1792532;80;25597;-52
2021/04/24 10:30:38;;;;;;;4.40;2.30;;;;;;;12.45;35.76;100756.86;1785261;80;26693;-52
2021/04/24 10:33:06;;;;;;;4.80;2.33;;;;;;;12.29;34.60;100757.24;1792254;79;25662;-52
2021/04/24 10:35:33;;;;;;;5.97;2.17;;;;;;;12.18;35.38;100755.87;1792574;80;26340;-52
2021/04/24 10:38:03;;;;;;;4.60;2.17;;;;;;;12.05;35.46;100754.81;1793473;79;25649;-50
2021/04/24 10:40:32;;;;;;;4.62;1.90;;;;;;;11.81;34.99;100753.72;1764517;78;25571;-51
2021/04/24 10:43:00;;;;;;;;;;;;;;;11.67;36.24;100747.55;1773295;78;25785;-52
2021/04/24 10:45:33;;;;;;;4.47;2.02;;;;;;;11.61;36.38;100744.12;1783887;80;25582;-51
2021/04/24 10:48:01;;;;;;;6.65;2.35;;;;;;;11.54;36.10;100745.10;1795634;78;25901;-51
2021/04/24 10:50:45;;;;;;;3.58;2.30;;;;;;;11.48;36.84;100737.64;1770843;79;26381;-53
2021/04/24 10:53:30;;;;;;;5.08;2.27;;;;;;;11.47;36.19;100740.66;1772431;79;25575;-49
2021/04/24 10:56:01;;;;;;;2.98;1.62;;;;;;;11.46;35.76;100741.22;1760733;81;25961;-51
2021/04/24 10:58:32;;;;;;;4.25;1.82;;;;;;;11.41;33.53;100737.27;1760524;81;25611;-51
2021/04/24 11:01:06;;;;;;;4.30;2.10;;;;;;;11.23;33.52;100729.50;1761120;81;25617;-53
2021/04/24 11:03:42;;;;;;;3.67;1.47;;;;;;;11.12;34.54;100724.86;1771684;80;25525;-53
2021/04/24 11:06:13;;;;;;;3.72;1.85;;;;;;;11.17;34.92;100728.81;1780595;80;25664;-51
2021/04/24 11:08:43;;;;;;;4.42;2.00;;;;;;;11.26;34.65;100734.88;1780464;80;25683;-67
2021/04/24 11:11:19;;;;;;;2.95;1.25;;;;;;;11.28;33.42;100736.72;1780208;80;25796;-67
2021/04/24 11:13:54;;;;;;;2.70;1.40;;;;;;;11.35;32.53;100732.48;1792890;79;25649;-67
2021/04/24 11:16:31;;;;;;;4.03;1.50;;;;;;;11.43;31.97;100729.63;1774176;79;25568;-67
2021/04/24 11:18:53;;;;;;;4.62;1.70;;;;;;;11.50;32.63;100738.14;1781926;79;26258;-53
2021/04/24 11:21:27;;;;;;;3.65;1.72;;;;;;;11.58;33.07;100729.86;1768986;79;25708;-49
2021/04/24 11:24:12;;;;;;;3.87;1.60;;;;;;;11.65;33.30;100727.52;1788542;79;25536;-67
2021/04/24 11:26:49;;;;;;;3.50;1.60;;;;;;;11.69;33.68;100732.56;1784550;79;25613;-50
2021/04/24 11:29:36;;;;;;;3.15;1.60;;;;;;;11.64;32.78;100728.62;1755156;80;26239;-67
2021/04/24 11:32:10;;;;;;;2.83;1.52;;;;;;;11.50;32.65;100727.30;1729971;80;25861;-50
2021/04/24 11:34:48;;;;;;;3.35;2.02;;;;;;;11.43;33.05;100725.56;1754054;80;26063;-52
2021/04/24 11:37:23;;;;;;;3.25;1.80;;;;;;;11.45;32.71;100723.34;1751571;81;25363;-53
2021/04/24 11:40:11;;;;;;;3.30;1.60;;;;;;;11.42;32.74;100725.87;1759997;80;25603;-52
2021/04/24 11:42:58;;;;;;;1.95;1.70;;;;;;;11.49;32.84;100731.66;1786667;79;26308;-51
2021/04/24 11:45:50;;;;;;;2.50;1.50;;;;;;;11.49;33.29;100717.59;1756134;81;25697;-53
2021/04/24 11:48:27;;;;;;;4.28;1.70;;;;;;;11.61;33.45;100716.23;1761545;80;26335;-52
2021/04/24 11:51:02;;;;;;;5.25;1.70;;;;;;;11.80;33.15;100718.78;1846388;76;34774;-53
2021/04/24 11:53:45;;;;;;;3.85;1.75;;;;;;;11.96;33.76;100710.02;1812569;78;25857;-53
2021/04/24 11:56:17;;;;;;;4.53;2.05;;;;;;;12.18;32.76;100717.91;1812299;78;25944;-51
2021/04/24 11:58:45;;;;;;;6.35;2.05;;;;;;;12.24;32.91;100716.69;1817465;78;25766;-52
2021/04/24 12:01:26;;;;;;;15.28;7.62;;;;;;;12.21;33.09;100715.94;1817261;78;26246;-53
2021/04/24 12:03:54;;;;;;;6.70;2.35;;;;;;;12.25;33.91;100718.83;1817355;78;25640;-53
2021/04/24 12:06:42;;;;;;;4.58;2.10;;;;;;;12.20;33.09;100723.82;1818286;78;25624;-53
2021/04/24 12:09:12;;;;;;;3.98;1.82;;;;;;;11.92;31.27;100713.67;1817871;78;25742;-52
2021/04/24 12:11:41;;;;;;;4.92;2.10;;;;;;;11.84;32.82;100715.16;1818095;78;25540;-53
2021/04/24 12:14:09;;;;;;;5.92;2.27;;;;;;;11.92;33.50;100713.11;1812940;78;25584;-53
2021/04/24 12:16:48;;;;;;;3.42;2.25;;;;;;;12.27;34.25;100706.55;1817218;78;25711;-52
2021/04/24 12:19:28;;;;;;;5.70;2.67;;;;;;;12.69;34.27;100711.16;1843072;77;25664;-51
2021/04/24 12:22:12;;;;;;;9.50;2.77;;;;;;;13.22;33.93;100720.84;1787720;79;26635;-52
2021/04/24 12:25:00;;;;;;;2.98;2.08;;;;;;;13.26;33.27;100723.16;1788155;79;26048;-57
2021/04/24 12:27:42;;;;;;;4.45;2.15;;;;;;;13.02;33.91;100721.66;1788036;79;25603;-56
2021/04/24 12:30:17;;;;;;;4.75;2.60;;;;;;;12.88;32.27;100714.98;1788603;80;25659;-56
2021/04/24 12:32:48;;;;;;;7.00;2.52;;;;;;;12.56;33.79;100713.41;1767276;80;25692;-55
2021/04/24 12:35:27;;;;;;;5.47;2.75;;;;;;;12.57;34.31;100706.09;1788707;80;26663;-55
2021/04/24 12:38:14;;;;;;;1.77;1.67;;;;;;;12.57;34.33;100708.80;1788673;80;34747;-55
2021/04/24 12:40:52;;;;;;;2.98;1.92;;;;;;;12.40;33.49;100708.16;1792321;78;26250;-54
2021/04/24 12:43:23;;;;;;;4.75;2.50;;;;;;;12.27;33.48;100709.27;1788638;80;25564;-54
2021/04/24 12:45:57;;;;;;;3.27;2.30;;;;;;;12.26;34.25;100710.39;1788081;79;25653;-55
2021/04/24 12:48:35;;;;;;;6.72;2.20;;;;;;;12.06;32.86;100711.69;1787449;79;25953;-55
2021/04/24 12:51:21;;;;;;;3.72;2.77;;;;;;;11.90;33.19;100708.53;1834048;76;38087;-55
2021/04/24 12:53:51;;;;;;;3.25;2.12;;;;;;;11.85;33.26;100708.65;1813565;78;25630;-55
2021/04/24 12:56:24;;;;;;;3.20;2.00;;;;;;;11.77;33.58;100697.97;1787239;78;26233;-56
2021/04/24 12:58:54;;;;;;;4.20;2.42;;;;;;;11.83;34.03;100710.05;1787879;80;25603;-54
2021/04/24 13:01:24;;;;;;;3.45;2.40;;;;;;;11.88;34.12;100703.15;1806719;77;29851;-54
2021/04/24 13:03:54;;;;;;;2.90;2.30;;;;;;;11.83;34.50;100712.75;1787939;80;25556;-54
2021/04/24 13:06:30;;;;;;;4.80;2.72;;;;;;;11.95;35.25;100696.23;1787946;80;25626;-54
2021/04/24 13:09:05;;;;;;;4.10;2.40;;;;;;;12.13;35.35;100692.27;1787739;80;26768;-54
2021/04/24 13:11:48;;;;;;;2.55;1.90;;;;;;;12.65;35.83;100680.87;1788288;80;25905;-53
2021/04/24 13:14:18;;;;;;;9.50;4.10;;;;;;;13.20;34.20;100665.47;1788000;80;25656;-54
2021/04/24 13:16:45;;;;;;;4.25;2.37;;;;;;;13.32;34.00;100668.17;1787948;80;25638;-55
2021/04/24 13:19:13;;;;;;;4.22;2.30;;;;;;;13.47;33.80;100680.47;1756201;80;26298;-55
2021/04/24 13:21:48;;;;;;;3.30;2.17;;;;;;;13.51;33.82;100678.73;1757423;80;25734;-55
2021/04/24 13:24:21;;;;;;;4.45;1.98;;;;;;;13.56;33.96;100668.48;1795482;78;25607;-53
2021/04/24 13:26:53;;;;;;;7.70;1.87;;;;;;;13.56;32.50;100671.77;1820329;78;25627;-55
2021/04/24 13:29:27;;;;;;;2.62;1.65;;;;;;;13.40;31.40;100674.14;1813181;77;25677;-55
2021/04/24 13:32:04;;;;;;;6.00;1.98;;;;;;;13.62;31.34;100667.22;1755622;81;25665;-56
2021/04/24 13:34:34;;;;;;;2.75;1.80;;;;;;;13.86;30.79;100663.75;1725868;81;26616;-55
2021/04/24 13:37:12;;;;;;;3.50;1.75;;;;;;;13.83;30.54;100675.51;1762266;81;25784;-55
2021/04/24 13:39:56;;;;;;;3.62;2.05;;;;;;;13.60;29.39;100672.18;1762347;81;25680;-55
2021/04/24 13:42:42;;;;;;;5.72;2.50;;;;;;;13.27;30.32;100660.93;1762544;81;25776;-55
2021/04/24 13:45:19;;;;;;;4.58;2.98;;;;;;;13.11;30.33;100666.56;1761514;81;25628;-55
2021/04/24 13:47:55;;;;;;;5.08;2.17;;;;;;;13.15;30.33;100668.91;1762792;81;25742;-56
2021/04/24 13:50:24;;;;;;;4.30;2.12;;;;;;;13.15;30.10;100664.84;1744509;81;25857;-56
2021/04/24 13:52:51;;;;;;;3.42;1.98;;;;;;;13.31;30.97;100665.95;1768596;81;25647;-55
2021/04/24 13:55:18;;;;;;;4.25;2.60;;;;;;;13.29;29.73;100668.77;1768690;80;25636;-55
2021/04/24 13:57:46;;;;;;;4.10;2.15;;;;;;;13.43;30.37;100665.36;1748814;81;25625;-56
2021/04/24 14:00:17;;;;;;;5.70;2.08;;;;;;;13.56;29.53;100667.13;1768614;80;25761;-56
2021/04/24 14:02:44;;;;;;;4.03;2.30;;;;;;;13.59;29.70;100664.34;1721453;82;28786;-57
2021/04/24 14:05:12;;;;;;;4.50;2.00;;;;;;;13.55;30.33;100662.83;1736268;82;26027;-56
2021/04/24 14:07:39;;;;;;;3.40;2.55;;;;;;;13.71;29.75;100667.21;1737032;82;26004;-56
2021/04/24 14:10:09;;;;;;;3.62;1.95;;;;;;;13.77;29.26;100663.22;1737150;82;25569;-55
2021/04/24 14:12:36;;;;;;;2.85;2.17;;;;;;;13.93;30.48;100664.87;1742879;82;25881;-56
2021/04/24 14:15:04;;;;;;;6.22;2.42;;;;;;;14.13;30.01;100659.86;1736993;82;25898;-55
2021/04/24 14:17:31;;;;;;;4.40;1.90;;;;;;;14.10;29.73;100655.09;1771102;79;25698;-55
2021/04/24 14:19:57;;;;;;;4.50;2.40;;;;;;;14.11;30.29;100661.54;1799612;79;25646;-57
2021/04/24 14:22:24;;;;;;;4.58;2.30;;;;;;;14.17;30.33;100654.81;1799404;79;25601;-55
2021/04/24 14:24:50;;;;;;;4.58;2.33;;;;;;;14.29;29.86;100658.22;1787165;80;27427;-55
2021/04/24 14:27:17;;;;;;;6.22;2.80;;;;;;;14.22;28.79;100652.48;1790547;80;25609;-59
2021/04/24 14:29:44;;;;;;;4.17;2.65;;;;;;;13.88;28.25;100645.22;1786767;80;25632;-55
2021/04/24 14:32:11;;;;;;;5.87;2.35;;;;;;;13.79;28.29;100642.48;1764153;80;26639;-55
2021/04/24 14:34:38;;;;;;;4.25;2.27;;;;;;;13.68;28.90;100641.23;1758731;81;25669;-55
2021/04/24 14:37:05;;;;;;;3.58;2.37;;;;;;;13.66;29.12;100643.48;1742953;81;26928;-56
2021/04/24 14:39:32;;;;;;;6.45;2.33;;;;;;;13.83;30.06;100640.16;1717576;81;25656;-57
2021/04/24 14:41:59;;;;;;;4.62;2.27;;;;;;;13.98;30.09;100642.95;1767669;81;25556;-55
2021/04/24 14:44:26;;;;;;;3.58;2.30;;;;;;;13.98;28.37;100634.00;1758478;79;26317;-55
2021/04/24 14:46:53;;;;;;;7.33;2.22;;;;;;;14.07;29.00;100635.33;1738828;80;25661;-55
2021/04/24 14:49:20;;;;;;;2.77;2.17;;;;;;;13.97;28.78;100637.26;1745714;81;26208;-56
2021/04/24 14:51:46;;;;;;;5.62;2.12;;;;;;;13.98;28.22;100639.44;1792171;80;25750;-56
2021/04/24 14:54:13;;;;;;;5.72;1.90;;;;;;;14.00;28.73;100627.67;1792560;79;26238;-55
2021/04/24 14:56:40;;;;;;;4.10;1.92;;;;;;;14.05;27.98;100628.06;1792828;80;26062;-55
2021/04/24 14:59:08;;;;;;;5.35;2.00;;;;;;;13.92;27.22;100643.44;1792968;78;25566;-56
2021/04/24 15:01:35;;;;;;;4.35;2.27;;;;;;;13.80;27.37;100642.16;1782814;79;27152;-56
2021/04/24 15:04:05;;;;;;;4.17;2.00;;;;;;;13.71;27.51;100635.16;1761472;80;26395;-55
2021/04/24 15:06:33;;;;;;;5.80;2.40;;;;;;;13.73;27.98;100637.78;1761497;81;25807;-56
2021/04/24 15:09:01;;;;;;;3.90;2.25;;;;;;;13.66;26.89;100638.05;1761336;81;25653;-56
2021/04/24 15:11:28;;;;;;;4.33;1.92;;;;;;;13.57;28.06;100630.69;1735925;81;25571;-55
2021/04/24 15:13:56;;;;;;;4.40;3.15;;;;;;;13.53;28.16;100630.28;1761390;81;28119;-55
2021/04/24 15:16:23;;;;;;;6.22;2.50;;;;;;;13.42;28.15;100626.53;1761262;81;25557;-55
2021/04/24 15:18:53;;;;;;;5.35;2.40;;;;;;;13.23;28.03;100620.59;1761459;81;25619;-56
2021/04/24 15:21:20;;;;;;;3.95;2.00;;;;;;;13.06;28.24;100622.73;1761394;81;25632;-56
2021/04/24 15:23:48;;;;;;;6.55;2.70;;;;;;;12.90;28.53;100618.30;1761441;81;25613;-55
2021/04/24 15:26:17;;;;;;;3.95;2.40;;;;;;;12.69;28.52;100622.95;1761615;81;26866;-56
2021/04/24 15:28:45;;;;;;;;;;;;;;;12.54;28.83;100613.10;1763921;81;26271;-55
2021/04/24 15:31:11;;;;;;;6.65;3.30;;;;;;;12.35;28.90;100622.28;1761396;81;25623;-55
2021/04/24 15:33:39;;;;;;;3.90;2.50;;;;;;;12.22;29.49;100606.90;1742459;82;25907;-55
2021/04/24 15:36:07;;;;;;;3.65;2.40;;;;;;;12.08;29.25;100616.48;1719056;82;25780;-55
2021/04/24 15:38:33;;;;;;;4.90;2.60;;;;;;;11.91;29.50;100622.05;1766609;80;25712;-54
2021/04/24 15:41:00;;;;;;;5.40;2.25;;;;;;;11.79;29.66;100620.42;1799949;79;25588;-55
2021/04/24 15:43:27;;;;;;;4.50;2.05;;;;;;;11.71;29.63;100616.56;1766151;80;25613;-56
2021/04/24 15:45:53;;;;;;;5.78;2.30;;;;;;;11.63;29.81;100617.83;1764705;79;25642;-55
2021/04/24 15:48:22;;;;;;;4.90;2.30;;;;;;;11.55;30.10;100624.24;1760173;80;25519;-55
2021/04/24 15:50:49;;;;;;;3.33;1.90;;;;;;;11.50;29.95;100620.86;1756799;79;25701;-55
2021/04/24 15:53:16;;;;;;;3.05;2.10;;;;;;;11.44;30.46;100618.84;1740714;80;26527;-56
2021/04/24 15:55:43;;;;;;;8.33;2.05;;;;;;;11.30;29.34;100621.56;1743454;80;25727;-55
2021/04/24 15:58:09;;;;;;;3.75;2.10;;;;;;;11.16;29.70;100624.31;1740629;80;26189;-55
2021/04/24 16:00:38;;;;;;;6.80;4.05;;;;;;;11.01;30.02;100634.13;1747001;80;25729;-55
2021/04/24 16:03:06;;;;;;;20.72;10.28;;;;;;;10.81;30.62;100641.57;1743049;80;25867;-56
2021/04/24 16:05:33;;;;;;;5.95;3.25;;;;;;;10.64;31.10;100631.89;1736388;80;25651;-55
2021/04/24 16:08:02;;;;;;;5.75;2.58;;;;;;;10.53;31.51;100621.03;1741692;80;25564;-55
2021/04/24 16:10:30;;;;;;;6.08;2.25;;;;;;;10.43;31.62;100621.47;1748356;81;25541;-55
2021/04/24 16:12:58;;;;;;;4.40;2.00;;;;;;;10.38;32.11;100626.97;1758675;81;25598;-56
2021/04/24 16:15:25;;;;;;;6.57;2.70;;;;;;;10.31;32.21;100619.78;1760007;81;25990;-55
2021/04/24 16:17:52;;;;;;;3.75;2.70;;;;;;;10.26;32.45;100622.58;1759892;80;25936;-56
2021/04/24 16:20:19;;;;;;;4.55;2.33;;;;;;;10.24;32.41;100617.47;1757170;80;26254;-56
2021/04/24 16:22:46;;;;;;;4.10;2.15;;;;;;;10.18;31.90;100615.16;1732592;80;25980;-56
2021/04/24 16:25:16;;;;;;;5.20;2.70;;;;;;;10.10;32.20;100619.36;1742025;80;25872;-56
2021/04/24 16:27:42;;;;;;;6.60;2.47;;;;;;;10.01;32.34;100608.97;1748576;81;25722;-55
2021/04/24 16:30:11;;;;;;;5.60;2.50;;;;;;;9.97;32.83;100606.05;1729289;82;25761;-56
2021/04/24 16:32:37;;;;;;;4.95;2.75;;;;;;;9.95;32.88;100615.02;1729705;82;26192;-55
2021/04/24 16:35:06;;;;;;;6.50;2.83;;;;;;;9.95;33.11;100616.92;1729665;82;25549;-55
2021/04/24 16:37:33;;;;;;;6.83;2.92;;;;;;;9.91;33.41;100609.41;1757033;81;25661;-56
2021/04/24 16:39:59;;;;;;;5.70;2.72;;;;;;;9.90;33.88;100613.75;1742508;81;29013;-55
2021/04/24 16:42:26;;;;;;;7.12;3.30;;;;;;;9.90;34.18;100614.55;1749674;81;26249;-55
2021/04/24 16:44:53;;;;;;;5.25;2.85;;;;;;;9.91;34.06;100613.45;1739946;81;25920;-55
2021/04/24 16:47:19;;;;;;;7.15;2.45;;;;;;;9.93;34.31;100612.34;1743815;81;25870;-64
2021/04/24 16:49:46;;;;;;;4.70;3.00;;;;;;;9.92;34.22;100615.60;1730044;81;25599;-64
2021/04/24 16:52:13;;;;;;;6.12;3.72;;;;;;;9.93;34.04;100616.39;1754555;81;25785;-64
2021/04/24 16:54:39;;;;;;;6.85;3.30;;;;;;;9.91;34.27;100614.81;1756903;80;25723;-65
2021/04/24 16:57:06;;;;;;;5.37;3.33;;;;;;;9.87;34.24;100611.64;1757503;81;25667;-64
2021/04/24 16:59:33;;;;;;;6.67;3.85;;;;;;;9.87;34.50;100617.04;1757550;81;25631;-64
2021/04/24 17:02:00;;;;;;;7.15;3.35;;;;;;;9.84;34.74;100618.97;1758075;81;25612;-56
2021/04/24 17:04:27;;;;;;;5.08;2.83;;;;;;;9.79;35.11;100620.41;1758200;81;25771;-56
2021/04/24 17:06:54;;;;;;;5.90;3.27;;;;;;;9.70;35.58;100622.98;1757999;81;25806;-57
2021/04/24 17:09:22;;;;;;;5.80;3.20;;;;;;;9.63;35.99;100635.52;1757469;81;25668;-57
2021/04/24 17:11:50;;;;;;;3.58;2.70;;;;;;;9.57;36.28;100648.86;1730666;81;25677;-56
2021/04/24 17:14:16;;;;;;;6.85;3.12;;;;;;;9.51;36.66;100639.22;1751992;81;25674;-57
2021/04/24 17:16:43;;;;;;;5.65;3.52;;;;;;;9.46;36.93;100650.89;1736404;82;25816;-56
2021/04/24 17:19:09;;;;;;;6.22;3.33;;;;;;;9.44;37.09;100647.69;1756416;81;25683;-57
2021/04/24 17:21:36;;;;;;;6.20;3.00;;;;;;;9.41;37.39;100652.87;1748534;79;26030;-56
2021/04/24 17:24:04;;;;;;;8.60;3.37;;;;;;;9.37;37.54;100650.51;1778626;79;26344;-55
2021/04/24 17:26:31;;;;;;;7.87;4.05;;;;;;;9.35;37.84;100652.15;1729045;79;25677;-57
2021/04/24 17:28:58;;;;;;;5.90;2.67;;;;;;;9.30;37.91;100651.66;1755989;81;25812;-56
2021/04/24 17:31:24;;;;;;;10.20;3.60;;;;;;;9.28;38.00;100659.78;1737328;81;25702;-55
2021/04/24 17:33:51;;;;;;;5.35;2.80;;;;;;;9.24;37.95;100657.42;1744209;79;25627;-55
2021/04/24 17:36:18;;;;;;;6.92;3.17;;;;;;;9.18;37.91;100658.05;1766249;80;26250;-56
2021/04/24 17:38:44;;;;;;;5.33;3.15;;;;;;;9.14;38.40;100665.09;1766189;80;25638;-56
2021/04/24 17:41:11;;;;;;;7.20;3.33;;;;;;;9.09;38.53;100666.52;1781361;79;25768;-56
2021/04/24 17:43:38;;;;;;;6.40;3.22;;;;;;;9.05;38.68;100666.84;1800749;79;26280;-55
2021/04/24 17:46:04;;;;;;;5.10;3.52;;;;;;;9.01;39.00;100670.67;1765490;80;25842;-56